Time;durP1;ratioP1;P1;durP2;ratioP2;P2;SDS_P1;SDS_P2;PMS_P1;PMS_P2;Temp;Humidity;BMP_temperature;BMP_pressure;BME280_temperature;BME280_humidity;BME280_pressure;Samples;Min_cycle;Max_cycle;Signal;HPM_P1;HPM_P2
2023/04/12 00:02:02;;;;;;;5.80;2.00;;;;;;;12.63;100.00;99408.27;106214;1254;61776;-55
2023/04/12 00:04:33;;;;;;;3.30;1.50;;;;;;;12.69;100.00;99407.67;106036;1253;60891;-54
2023/04/12 00:07:02;;;;;;;3.90;1.40;;;;;;;12.76;100.00;99407.13;106095;1251;72519;-54
2023/04/12 00:09:35;;;;;;;6.60;2.30;;;;;;;12.83;100.00;99402.74;106220;1251;68372;-54
2023/04/12 00:12:05;;;;;;;4.60;1.50;;;;;;;12.86;100.00;99403.27;105982;1251;72617;-54
2023/04/12 00:14:33;;;;;;;3.70;1.70;;;;;;;12.90;100.00;99395.86;106076;1250;61770;-56
2023/04/12 00:17:02;;;;;;;6.70;2.50;;;;;;;12.95;100.00;99391.22;106117;1250;60839;-55
2023/04/12 00:19:31;;;;;;;4.90;1.90;;;;;;;12.99;100.00;99389.61;105991;1250;73553;-54
2023/04/12 00:22:01;;;;;;;5.80;1.40;;;;;;;13.02;100.00;99385.13;106027;1254;67347;-55
2023/04/12 00:24:30;;;;;;;4.50;1.70;;;;;;;13.04;100.00;99387.58;105979;1254;73216;-54
2023/04/12 00:27:00;;;;;;;4.90;1.80;;;;;;;13.04;100.00;99390.11;105993;1250;60842;-55
2023/04/12 00:29:34;;;;;;;4.30;2.00;;;;;;;13.03;100.00;99383.92;105815;1253;61042;-55
2023/04/12 00:32:04;;;;;;;3.30;1.70;;;;;;;13.03;100.00;99380.48;106016;1250;74294;-55
2023/04/12 00:34:33;;;;;;;4.50;1.80;;;;;;;13.04;100.00;99384.88;105992;1250;67416;-54
2023/04/12 00:37:02;;;;;;;4.10;1.70;;;;;;;13.04;100.00;99382.58;105973;1251;74652;-55
2023/04/12 00:39:31;;;;;;;4.70;1.80;;;;;;;13.04;100.00;99381.83;106092;1251;60968;-55
2023/04/12 00:42:07;;;;;;;5.30;2.00;;;;;;;13.02;100.00;99384.25;105900;1254;60828;-55
2023/04/12 00:44:36;;;;;;;7.20;1.90;;;;;;;13.01;100.00;99383.02;106162;1251;73807;-58
2023/04/12 00:47:05;;;;;;;4.70;1.80;;;;;;;12.99;100.00;99381.44;105944;1253;68213;-55
2023/04/12 00:49:36;;;;;;;3.50;1.70;;;;;;;12.97;100.00;99382.17;105736;1254;73155;-53
2023/04/12 00:52:09;;;;;;;6.20;2.20;;;;;;;12.97;100.00;99374.22;106032;1251;61118;-53
2023/04/12 00:54:41;;;;;;;4.80;1.80;;;;;;;12.97;100.00;99381.70;105877;1254;60455;-54
2023/04/12 00:57:12;;;;;;;3.60;1.70;;;;;;;12.96;100.00;99376.33;106072;1251;73537;-55
2023/04/12 00:59:41;;;;;;;5.60;2.00;;;;;;;12.93;100.00;99375.99;106128;1249;68956;-53
2023/04/12 01:02:12;;;;;;;4.80;1.80;;;;;;;12.87;100.00;99376.94;106170;1252;74170;-53
2023/04/12 01:04:42;;;;;;;5.20;1.80;;;;;;;12.81;100.00;99378.70;105926;1251;61622;-57
2023/04/12 01:07:28;;;;;;;7.60;2.00;;;;;;;12.76;100.00;99376.73;105964;1250;59658;-56
2023/04/12 01:10:03;;;;;;;4.20;1.80;;;;;;;12.71;100.00;99372.39;106099;1250;73237;-56
2023/04/12 01:12:46;;;;;;;7.90;1.80;;;;;;;12.67;100.00;99368.36;105850;1254;67404;-57
2023/04/12 01:15:15;;;;;;;5.00;1.90;;;;;;;12.62;100.00;99369.15;105877;1251;74227;-55
2023/04/12 01:18:05;;;;;;;4.50;2.00;;;;;;;12.54;100.00;99369.88;105841;1255;61692;-56
2023/04/12 01:20:38;;;;;;;4.50;1.90;;;;;;;12.43;100.00;99365.27;105926;1252;60533;-55
2023/04/12 01:23:25;;;;;;;4.80;2.00;;;;;;;12.30;100.00;99357.66;106035;1251;74262;-55
2023/04/12 01:26:20;;;;;;;8.60;2.10;;;;;;;12.13;100.00;99353.75;106034;1254;68564;-55
2023/04/12 01:28:52;;;;;;;5.10;1.90;;;;;;;11.99;100.00;99347.69;106041;1250;73160;-56
2023/04/12 01:31:24;;;;;;;6.70;1.70;;;;;;;11.92;100.00;99342.42;106018;1250;61976;-55
2023/04/12 01:34:01;;;;;;;3.80;1.60;;;;;;;11.91;100.00;99334.61;105619;1257;62142;-55
2023/04/12 01:36:31;;;;;;;4.70;1.80;;;;;;;11.91;100.00;99333.45;105975;1256;74940;-53
2023/04/12 01:39:03;;;;;;;6.20;2.30;;;;;;;11.91;100.00;99332.47;105865;1251;66596;-59
2023/04/12 01:41:32;;;;;;;3.50;1.60;;;;;;;11.92;100.00;99333.06;105610;1256;73652;-53
2023/04/12 01:44:00;;;;;;;2.70;1.30;;;;;;;11.94;100.00;99328.52;105994;1255;60891;-53
2023/04/12 01:46:31;;;;;;;3.20;1.50;;;;;;;11.95;100.00;99329.29;106078;1250;61898;-54
2023/04/12 01:49:00;;;;;;;5.90;1.70;;;;;;;11.94;100.00;99324.46;106094;1251;75170;-56
2023/04/12 01:51:41;;;;;;;7.40;2.00;;;;;;;11.94;100.00;99319.81;106142;1251;67495;-54
2023/04/12 01:54:12;;;;;;;3.60;1.50;;;;;;;11.91;100.00;99316.85;105860;1254;74393;-55
2023/04/12 01:56:45;;;;;;;6.10;2.00;;;;;;;11.86;100.00;99312.40;106161;1251;63434;-57
2023/04/12 01:59:15;;;;;;;3.90;1.90;;;;;;;11.77;100.00;99309.63;106122;1255;61787;-53
2023/04/12 02:01:45;;;;;;;3.40;1.70;;;;;;;11.63;100.00;99304.65;105960;1251;75651;-55
2023/04/12 02:04:15;;;;;;;6.00;2.20;;;;;;;11.50;100.00;99301.05;106429;1251;68600;-54
2023/04/12 02:06:45;;;;;;;3.70;1.60;;;;;;;11.37;100.00;99300.58;106144;1251;73663;-57
2023/04/12 02:09:15;;;;;;;5.60;1.90;;;;;;;11.30;100.00;99298.09;105819;1251;60756;-55
2023/04/12 02:11:47;;;;;;;3.80;1.90;;;;;;;11.28;100.00;99294.81;105996;1251;61912;-55
2023/04/12 02:14:15;;;;;;;2.60;1.50;;;;;;;11.29;100.00;99293.61;105805;1254;75396;-55
2023/04/12 02:16:49;;;;;;;3.90;1.50;;;;;;;11.36;100.00;99297.02;105915;1253;67788;-54
2023/04/12 02:19:18;;;;;;;5.50;1.70;;;;;;;11.41;100.00;99290.55;105967;1251;74150;-56
2023/04/12 02:21:46;;;;;;;5.20;2.40;;;;;;;11.42;100.00;99294.04;106399;1251;60955;-56
2023/04/12 02:24:16;;;;;;;5.40;1.90;;;;;;;11.40;100.00;99289.12;106130;1254;60360;-56
2023/04/12 02:26:48;;;;;;;4.90;2.00;;;;;;;11.41;100.00;99292.59;106039;1251;74363;-54
2023/04/12 02:29:17;;;;;;;6.90;1.90;;;;;;;11.43;100.00;99295.04;105942;1251;67535;-55
2023/04/12 02:31:50;;;;;;;5.50;1.80;;;;;;;11.43;100.00;99293.02;106208;1253;74705;-54
2023/04/12 02:34:20;;;;;;;5.20;1.70;;;;;;;11.42;100.00;99296.44;106041;1251;60911;-54
2023/04/12 02:36:55;;;;;;;3.50;1.60;;;;;;;11.43;100.00;99294.15;105868;1251;61176;-54
2023/04/12 02:39:28;;;;;;;4.90;1.70;;;;;;;11.44;100.00;99295.71;106159;1252;75065;-55
2023/04/12 02:41:57;;;;;;;5.50;1.60;;;;;;;11.46;100.00;99295.61;106152;1250;67570;-55
2023/04/12 02:44:29;;;;;;;3.60;1.90;;;;;;;11.49;100.00;99300.19;105918;1251;73934;-55
2023/04/12 02:47:13;;;;;;;5.50;1.80;;;;;;;11.51;100.00;99304.26;105892;1257;61282;-54
2023/04/12 02:49:45;;;;;;;7.60;2.40;;;;;;;11.52;100.00;99311.88;105820;1249;61553;-53
2023/04/12 02:52:15;;;;;;;5.00;1.90;;;;;;;11.53;100.00;99311.59;105799;1256;74355;-54
2023/04/12 02:54:57;;;;;;;4.90;1.90;;;;;;;11.53;100.00;99308.98;105850;1257;69193;-54
2023/04/12 02:57:26;;;;;;;6.60;1.50;;;;;;;11.54;100.00;99309.05;105677;1254;74097;-53
2023/04/12 03:00:14;;;;;;;7.80;2.90;;;;;;;11.55;100.00;99309.08;105657;1257;61847;-54
2023/04/12 03:03:01;;;;;;;4.80;2.00;;;;;;;11.55;100.00;99305.15;105998;1251;61945;-57
2023/04/12 03:05:31;;;;;;;4.60;1.90;;;;;;;11.55;100.00;99307.30;105709;1250;75262;-53
2023/04/12 03:08:01;;;;;;;6.40;2.10;;;;;;;11.54;100.00;99307.35;106207;1252;67720;-57
2023/04/12 03:10:44;;;;;;;4.90;1.90;;;;;;;11.53;100.00;99311.63;105570;1250;73169;-54
2023/04/12 03:13:12;;;;;;;6.20;2.40;;;;;;;11.46;100.00;99312.11;105917;1250;60482;-53
2023/04/12 03:15:46;;;;;;;7.60;1.70;;;;;;;11.39;100.00;99305.95;106191;1251;61856;-54
2023/04/12 03:18:16;;;;;;;6.80;2.50;;;;;;;11.35;100.00;99307.45;105849;1251;75379;-53
2023/04/12 03:20:47;;;;;;;7.90;2.20;;;;;;;11.31;100.00;99314.47;106092;1255;68707;-54
2023/04/12 03:23:16;;;;;;;5.70;2.30;;;;;;;11.22;100.00;99309.51;106064;1253;73132;-53
2023/04/12 03:25:49;;;;;;;3.60;1.80;;;;;;;11.11;100.00;99313.66;105715;1253;62267;-55
2023/04/12 03:28:38;;;;;;;4.10;2.00;;;;;;;10.98;100.00;99323.45;105937;1251;61782;-56
2023/04/12 03:31:06;;;;;;;4.50;2.10;;;;;;;10.88;100.00;99324.21;105927;1254;75568;-54
2023/04/12 03:33:39;;;;;;;6.00;2.10;;;;;;;10.81;100.00;99331.66;105956;1252;68741;-54
2023/04/12 03:36:13;;;;;;;8.50;2.30;;;;;;;10.73;100.00;99336.39;105862;1252;74166;-57
2023/04/12 03:38:42;;;;;;;5.00;3.00;;;;;;;10.65;100.00;99336.52;105938;1251;62404;-54
2023/04/12 03:41:11;;;;;;;4.00;2.00;;;;;;;10.58;100.00;99342.55;106116;1254;62292;-55
2023/04/12 03:43:41;;;;;;;4.30;1.90;;;;;;;10.52;100.00;99345.67;105901;1251;75286;-54
2023/04/12 03:46:16;;;;;;;7.30;2.50;;;;;;;10.43;100.00;99349.22;105971;1254;68863;-54
2023/04/12 03:48:50;;;;;;;6.50;2.30;;;;;;;10.35;100.00;99354.29;105992;1255;72935;-55
2023/04/12 03:51:21;;;;;;;6.10;2.20;;;;;;;10.30;100.00;99361.27;106064;1251;63691;-54
2023/04/12 03:53:49;;;;;;;5.80;2.30;;;;;;;10.26;100.00;99365.27;105995;1251;60851;-55
2023/04/12 03:56:19;;;;;;;6.60;2.70;;;;;;;10.22;100.00;99365.25;105747;1251;73748;-54
2023/04/12 03:58:50;;;;;;;8.90;2.50;;;;;;;10.17;100.00;99369.70;105894;1254;68840;-57
2023/04/12 04:01:20;;;;;;;3.40;2.00;;;;;;;10.12;100.00;99376.56;105898;1254;73255;-57
2023/04/12 04:03:49;;;;;;;4.00;1.90;;;;;;;10.10;100.00;99379.01;105952;1251;62480;-56
2023/04/12 04:06:28;;;;;;;5.50;2.20;;;;;;;10.06;100.00;99381.62;106173;1251;61989;-56
2023/04/12 04:08:57;;;;;;;7.00;2.90;;;;;;;10.03;100.00;99388.22;105774;1254;75851;-54
2023/04/12 04:11:26;;;;;;;7.30;2.20;;;;;;;10.02;100.00;99392.52;106019;1251;68374;-58
2023/04/12 04:14:00;;;;;;;4.80;2.10;;;;;;;10.00;100.00;99392.92;105911;1251;73560;-54
2023/04/12 04:16:30;;;;;;;8.50;2.80;;;;;;;9.97;100.00;99393.31;106271;1256;62295;-54
2023/04/12 04:18:59;;;;;;;7.70;2.60;;;;;;;9.96;100.00;99397.40;105824;1257;62309;-55
2023/04/12 04:21:29;;;;;;;6.20;3.00;;;;;;;9.94;100.00;99407.33;106154;1252;75069;-62
2023/04/12 04:24:00;;;;;;;6.00;3.10;;;;;;;9.93;100.00;99402.73;105803;1254;67084;-55
2023/04/12 04:26:32;;;;;;;6.60;2.50;;;;;;;9.90;100.00;99403.67;105658;1252;73136;-61
2023/04/12 04:29:25;;;;;;;6.40;2.80;;;;;;;9.89;100.00;99406.45;105919;1254;62712;-56
2023/04/12 04:31:53;;;;;;;9.30;2.80;;;;;;;9.89;100.00;99407.92;106110;1252;62015;-56
2023/04/12 04:34:24;;;;;;;5.70;3.00;;;;;;;9.88;100.00;99409.39;106150;1251;74570;-59
2023/04/12 04:36:56;;;;;;;7.80;2.90;;;;;;;9.86;100.00;99408.09;106094;1255;67591;-58
2023/04/12 04:39:27;;;;;;;6.70;2.90;;;;;;;9.85;100.00;99408.72;106072;1252;72913;-56
2023/04/12 04:41:57;;;;;;;5.60;2.90;;;;;;;9.85;100.00;99415.90;105903;1250;64046;-56
2023/04/12 04:44:36;;;;;;;6.00;3.10;;;;;;;9.87;100.00;99418.42;105762;1251;61836;-56
2023/04/12 04:47:07;;;;;;;6.30;3.10;;;;;;;9.87;100.00;99417.73;105749;1255;73658;-57
2023/04/12 04:49:38;;;;;;;5.80;3.40;;;;;;;9.87;100.00;99420.09;105956;1251;69017;-56
2023/04/12 04:52:20;;;;;;;6.20;3.60;;;;;;;9.89;100.00;99420.43;105706;1256;74202;-58
2023/04/12 04:54:49;;;;;;;5.80;2.60;;;;;;;9.90;100.00;99418.50;105822;1257;61810;-56
2023/04/12 04:57:21;;;;;;;;;;;;;;;9.91;100.00;99429.52;105901;1250;61885;-57
2023/04/12 04:59:50;;;;;;;4.60;2.50;;;;;;;9.91;100.00;99435.67;106246;1252;75181;-57
2023/04/12 05:02:20;;;;;;;5.80;2.80;;;;;;;9.91;100.00;99433.52;106281;1254;67809;-58
2023/04/12 05:04:50;;;;;;;8.60;3.80;;;;;;;9.90;100.00;99427.55;106112;1250;74607;-58
2023/04/12 05:07:21;;;;;;;7.90;3.20;;;;;;;9.91;100.00;99414.05;105994;1250;62647;-56
2023/04/12 05:09:50;;;;;;;6.10;2.70;;;;;;;9.92;100.00;99419.98;105925;1252;60785;-59
2023/04/12 05:12:20;;;;;;;6.80;3.10;;;;;;;9.92;100.00;99420.54;106119;1251;75507;-58
2023/04/12 05:14:56;;;;;;;7.70;3.20;;;;;;;9.89;100.00;99422.10;105795;1256;68763;-57
2023/04/12 05:17:39;;;;;;;7.20;3.60;;;;;;;9.86;100.00;99417.09;106014;1254;73072;-57
2023/04/12 05:20:12;;;;;;;6.50;3.30;;;;;;;9.84;100.00;99419.98;106049;1251;63689;-59
2023/04/12 05:22:41;;;;;;;6.40;2.90;;;;;;;9.82;100.00;99416.86;106022;1254;61983;-58
2023/04/12 05:25:09;;;;;;;7.30;3.70;;;;;;;9.79;100.00;99422.73;106085;1255;75343;-58
2023/04/12 05:27:46;;;;;;;6.40;3.50;;;;;;;9.77;100.00;99415.52;106038;1255;68110;-59
2023/04/12 05:30:18;;;;;;;7.10;3.20;;;;;;;9.76;100.00;99418.60;105852;1251;72762;-57
2023/04/12 05:32:47;;;;;;;8.20;3.50;;;;;;;9.76;100.00;99414.27;106039;1251;62517;-57
2023/04/12 05:35:17;;;;;;;6.20;3.70;;;;;;;9.76;100.00;99418.39;106460;1250;60858;-60
2023/04/12 05:37:47;;;;;;;7.10;3.70;;;;;;;9.77;100.00;99422.13;105980;1255;75169;-58
2023/04/12 05:40:16;;;;;;;7.40;3.90;;;;;;;9.80;100.00;99421.45;106158;1257;69471;-59
2023/04/12 05:42:45;;;;;;;7.50;3.40;;;;;;;9.82;100.00;99418.38;105901;1252;74271;-60
2023/04/12 05:45:14;;;;;;;6.50;4.10;;;;;;;9.84;100.00;99414.40;106095;1252;63309;-62
2023/04/12 05:47:44;;;;;;;5.10;3.70;;;;;;;9.85;100.00;99415.73;105950;1257;60562;-58
2023/04/12 05:50:16;;;;;;;7.50;3.80;;;;;;;9.86;100.00;99421.30;105801;1252;75341;-58
2023/04/12 05:52:54;;;;;;;7.10;3.60;;;;;;;9.87;100.00;99418.94;105569;1254;67576;-60
2023/04/12 05:55:27;;;;;;;6.00;3.70;;;;;;;9.87;100.00;99420.49;106128;1251;74328;-60
2023/04/12 05:57:57;;;;;;;5.10;3.30;;;;;;;9.88;100.00;99423.61;106131;1254;63722;-59
2023/04/12 06:00:26;;;;;;;9.00;4.20;;;;;;;9.88;100.00;99427.75;106015;1256;61625;-59
2023/04/12 06:02:55;;;;;;;6.60;4.20;;;;;;;9.89;100.00;99430.40;105901;1256;75365;-58
2023/04/12 06:05:27;;;;;;;6.40;3.70;;;;;;;9.90;100.00;99438.33;105748;1251;68381;-58
2023/04/12 06:07:59;;;;;;;;;;;;;;;9.90;100.00;99433.77;105919;1257;73245;-58
2023/04/12 06:10:29;;;;;;;6.90;3.60;;;;;;;9.93;100.00;99435.36;106028;1251;64003;-56
2023/04/12 06:12:59;;;;;;;7.20;4.30;;;;;;;9.94;100.00;99443.37;106089;1252;62923;-57
2023/04/12 06:15:30;;;;;;;7.50;4.00;;;;;;;9.95;100.00;99448.26;105944;1254;74744;-57
2023/04/12 06:17:59;;;;;;;9.90;3.60;;;;;;;9.96;100.00;99440.81;106017;1252;68414;-56
2023/04/12 06:20:32;;;;;;;7.50;3.90;;;;;;;9.98;100.00;99435.81;105939;1251;73954;-62
2023/04/12 06:23:01;;;;;;;5.80;3.60;;;;;;;10.04;100.00;99429.73;105526;1256;62602;-58
2023/04/12 06:25:31;;;;;;;6.30;3.80;;;;;;;10.11;100.00;99426.20;106074;1252;60428;-56
2023/04/12 06:28:03;;;;;;;6.40;3.70;;;;;;;10.17;100.00;99434.81;106103;1251;75327;-56
2023/04/12 06:30:37;;;;;;;9.10;4.10;;;;;;;10.21;100.00;99435.10;106136;1256;68742;-60
2023/04/12 06:33:05;;;;;;;6.50;3.60;;;;;;;10.24;100.00;99434.79;105943;1254;73450;-56
2023/04/12 06:35:34;;;;;;;5.90;3.40;;;;;;;10.26;100.00;99433.29;106147;1252;61967;-56
2023/04/12 06:38:03;;;;;;;6.00;3.60;;;;;;;10.28;100.00;99431.89;106107;1254;61875;-57
2023/04/12 06:40:37;;;;;;;6.70;4.00;;;;;;;10.28;100.00;99437.54;106155;1251;74708;-59
2023/04/12 06:43:08;;;;;;;6.30;3.70;;;;;;;10.28;100.00;99432.77;106045;1251;68411;-56
2023/04/12 06:45:36;;;;;;;8.30;4.20;;;;;;;10.26;100.00;99430.73;106166;1252;74146;-57
2023/04/12 06:48:05;;;;;;;6.70;3.80;;;;;;;10.23;100.00;99430.93;106126;1254;62317;-58
2023/04/12 06:50:34;;;;;;;5.70;3.40;;;;;;;10.19;100.00;99443.67;106264;1251;61836;-57
2023/04/12 06:53:04;;;;;;;6.20;3.90;;;;;;;10.16;100.00;99424.84;106132;1253;75350;-58
2023/04/12 06:55:33;;;;;;;6.80;4.90;;;;;;;10.16;100.00;99418.59;106277;1251;68780;-59
2023/04/12 06:58:02;;;;;;;6.30;3.60;;;;;;;10.16;100.00;99412.02;106055;1253;73196;-58
2023/04/12 07:00:32;;;;;;;6.80;4.20;;;;;;;10.16;100.00;99400.56;105909;1254;62122;-57
2023/04/12 07:03:01;;;;;;;6.80;4.50;;;;;;;10.20;100.00;99398.47;105759;1250;61277;-58
2023/04/12 07:05:30;;;;;;;5.40;3.50;;;;;;;10.23;100.00;99399.33;106003;1252;74387;-57
2023/04/12 07:07:59;;;;;;;7.30;4.10;;;;;;;10.24;100.00;99400.04;106034;1254;68104;-57
2023/04/12 07:10:28;;;;;;;5.60;3.40;;;;;;;10.25;100.00;99399.41;106141;1252;74402;-58
2023/04/12 07:13:01;;;;;;;6.20;4.10;;;;;;;10.26;100.00;99395.48;106169;1254;61773;-60
2023/04/12 07:15:31;;;;;;;6.50;3.80;;;;;;;10.29;100.00;99393.70;106079;1253;60972;-56
2023/04/12 07:18:01;;;;;;;7.80;4.20;;;;;;;10.31;100.00;99388.69;106142;1254;75379;-58
2023/04/12 07:20:29;;;;;;;7.40;4.90;;;;;;;10.34;100.00;99387.80;105907;1253;67198;-56
2023/04/12 07:22:59;;;;;;;6.30;4.50;;;;;;;10.34;100.00;99389.20;105844;1251;75085;-58
2023/04/12 07:25:28;;;;;;;9.80;4.10;;;;;;;10.35;100.00;99381.07;105821;1251;63802;-57
2023/04/12 07:27:57;;;;;;;7.70;4.20;;;;;;;10.39;100.00;99376.73;106019;1250;60852;-56
2023/04/12 07:30:25;;;;;;;9.10;4.40;;;;;;;10.43;100.00;99376.04;105828;1254;75976;-57
2023/04/12 07:32:54;;;;;;;7.00;4.20;;;;;;;10.45;100.00;99361.65;105958;1254;67175;-57
2023/04/12 07:35:41;;;;;;;9.20;3.50;;;;;;;10.48;100.00;99360.91;105792;1254;73698;-60
2023/04/12 07:38:10;;;;;;;8.70;4.60;;;;;;;10.51;100.00;99364.36;105766;1251;62756;-57
2023/04/12 07:40:38;;;;;;;5.20;4.00;;;;;;;10.53;100.00;99365.47;105825;1254;60616;-56
2023/04/12 07:43:09;;;;;;;5.60;3.30;;;;;;;10.55;100.00;99363.14;105959;1252;74844;-56
2023/04/12 07:45:38;;;;;;;5.20;3.70;;;;;;;10.56;100.00;99357.13;105992;1249;67267;-57
2023/04/12 07:48:07;;;;;;;6.30;3.80;;;;;;;10.58;100.00;99362.38;106240;1253;74179;-60
2023/04/12 07:50:37;;;;;;;5.90;3.70;;;;;;;10.61;100.00;99352.45;105910;1249;63861;-56
2023/04/12 07:53:21;;;;;;;7.20;3.60;;;;;;;10.63;100.00;99352.34;105920;1254;62099;-57
2023/04/12 07:55:50;;;;;;;7.10;3.80;;;;;;;10.67;100.00;99352.68;106146;1254;75383;-59
2023/04/12 07:58:20;;;;;;;6.30;3.30;;;;;;;10.69;100.00;99354.61;105982;1253;68262;-59
2023/04/12 08:00:52;;;;;;;5.80;3.00;;;;;;;10.72;100.00;99353.59;106081;1257;74501;-60
2023/04/12 08:03:23;;;;;;;5.10;3.20;;;;;;;10.72;100.00;99350.83;106051;1253;62487;-57
2023/04/12 08:05:52;;;;;;;8.30;3.60;;;;;;;10.70;100.00;99347.34;105948;1253;60821;-57
2023/04/12 08:08:24;;;;;;;4.70;3.30;;;;;;;10.70;100.00;99350.52;105714;1254;75326;-57
2023/04/12 08:10:53;;;;;;;5.90;3.70;;;;;;;10.70;100.00;99356.60;106218;1251;68682;-61
2023/04/12 08:13:22;;;;;;;7.20;4.40;;;;;;;10.72;100.00;99354.64;106056;1252;74395;-57
2023/04/12 08:15:53;;;;;;;4.90;3.20;;;;;;;10.74;100.00;99351.70;105895;1252;61314;-58
2023/04/12 08:18:23;;;;;;;8.70;4.70;;;;;;;10.77;100.00;99347.71;105941;1253;60421;-58
2023/04/12 08:20:51;;;;;;;9.80;3.70;;;;;;;10.77;100.00;99340.82;106091;1251;75103;-57
2023/04/12 08:23:22;;;;;;;8.40;4.30;;;;;;;10.79;100.00;99348.43;105991;1254;68727;-57
2023/04/12 08:25:51;;;;;;;8.30;4.40;;;;;;;10.78;100.00;99349.80;106125;1256;74171;-59
2023/04/12 08:28:21;;;;;;;6.80;4.20;;;;;;;10.79;100.00;99357.45;106018;1254;62925;-55
2023/04/12 08:30:50;;;;;;;8.00;4.10;;;;;;;10.82;100.00;99353.74;105977;1254;60021;-57
2023/04/12 08:33:20;;;;;;;6.10;4.30;;;;;;;10.83;100.00;99352.98;106025;1253;74267;-55
2023/04/12 08:35:51;;;;;;;7.60;4.90;;;;;;;10.86;100.00;99363.25;106240;1254;68644;-60
2023/04/12 08:38:20;;;;;;;8.80;4.60;;;;;;;10.90;100.00;99366.91;105869;1253;71592;-60
2023/04/12 08:41:09;;;;;;;7.60;3.70;;;;;;;10.96;100.00;99366.49;105768;1252;62617;-57
2023/04/12 08:43:42;;;;;;;7.60;4.30;;;;;;;10.99;100.00;99360.39;106257;1250;61703;-62
2023/04/12 08:46:14;;;;;;;8.90;4.00;;;;;;;11.02;100.00;99352.18;105781;1251;74836;-62
2023/04/12 08:48:45;;;;;;;8.00;4.40;;;;;;;11.04;100.00;99350.30;106053;1253;68332;-57
2023/04/12 08:51:17;;;;;;;5.70;3.50;;;;;;;11.06;100.00;99354.54;105933;1257;74153;-57
2023/04/12 08:53:47;;;;;;;7.30;4.10;;;;;;;11.08;100.00;99356.41;106024;1250;62260;-57
2023/04/12 08:56:20;;;;;;;5.60;3.50;;;;;;;11.08;100.00;99347.42;105872;1251;62297;-58
2023/04/12 08:58:49;;;;;;;7.20;3.60;;;;;;;11.12;100.00;99338.98;106107;1253;75407;-57
2023/04/12 09:01:19;;;;;;;7.40;3.80;;;;;;;11.14;100.00;99333.52;106133;1251;68625;-63
2023/04/12 09:03:50;;;;;;;8.20;3.20;;;;;;;11.16;100.00;99320.18;105800;1257;73977;-57
2023/04/12 09:06:20;;;;;;;5.60;3.10;;;;;;;11.17;100.00;99315.27;106011;1253;62869;-61
2023/04/12 09:08:55;;;;;;;5.80;3.10;;;;;;;11.19;100.00;99320.52;105986;1254;60859;-58
2023/04/12 09:11:29;;;;;;;7.30;3.40;;;;;;;11.20;100.00;99318.10;105629;1257;75117;-57
2023/04/12 09:13:58;;;;;;;8.00;3.50;;;;;;;11.21;100.00;99311.77;106004;1254;68642;-62
2023/04/12 09:16:34;;;;;;;8.40;3.70;;;;;;;11.23;100.00;99314.84;105960;1251;73042;-59
2023/04/12 09:19:03;;;;;;;5.80;3.40;;;;;;;11.26;100.00;99312.38;105864;1251;434500;-59
2023/04/12 09:21:33;;;;;;;7.50;3.20;;;;;;;11.25;100.00;99313.31;105884;1250;61875;-60
2023/04/12 09:24:02;;;;;;;6.70;3.10;;;;;;;11.25;100.00;99306.40;106045;1256;75056;-62
2023/04/12 09:26:35;;;;;;;8.70;3.90;;;;;;;11.24;100.00;99300.66;105769;1253;68554;-61
2023/04/12 09:29:04;;;;;;;5.40;3.40;;;;;;;11.23;100.00;99292.04;105892;1251;74403;-57
2023/04/12 09:31:32;;;;;;;5.90;3.90;;;;;;;11.22;100.00;99283.10;105840;1251;63339;-57
2023/04/12 09:34:07;;;;;;;7.80;4.00;;;;;;;11.20;100.00;99289.40;105462;1254;60615;-58
2023/04/12 09:36:37;;;;;;;5.50;3.50;;;;;;;11.20;100.00;99289.60;106164;1253;74078;-58
2023/04/12 09:39:09;;;;;;;6.40;3.50;;;;;;;11.20;100.00;99282.55;105723;1256;68609;-59
2023/04/12 09:41:38;;;;;;;5.00;3.30;;;;;;;11.21;100.00;99276.33;106079;1256;74179;-60
2023/04/12 09:44:07;;;;;;;7.10;4.60;;;;;;;11.24;100.00;99275.34;106365;1252;62548;-57
2023/04/12 09:46:42;;;;;;;6.80;4.20;;;;;;;11.28;100.00;99272.46;106131;1251;61786;-57
2023/04/12 09:49:13;;;;;;;5.80;3.80;;;;;;;11.30;100.00;99266.77;105856;1257;75089;-57
2023/04/12 09:51:41;;;;;;;6.70;3.40;;;;;;;11.31;100.00;99273.84;106028;1262;66810;-58
2023/04/12 09:54:11;;;;;;;8.00;3.90;;;;;;;11.32;100.00;99272.23;106241;1253;73910;-59
2023/04/12 09:56:41;;;;;;;7.80;3.40;;;;;;;11.33;100.00;99268.42;105700;1255;62862;-58
2023/04/12 09:59:09;;;;;;;6.60;4.00;;;;;;;11.33;100.00;99270.30;106038;1253;60601;-61
2023/04/12 10:01:38;;;;;;;8.20;4.00;;;;;;;11.33;100.00;99274.29;106402;1260;74392;-57
2023/04/12 10:04:08;;;;;;;7.90;4.50;;;;;;;11.33;100.00;99272.92;105996;1254;68872;-58
2023/04/12 10:06:40;;;;;;;6.20;3.70;;;;;;;11.33;100.00;99279.58;106037;1254;74501;-58
2023/04/12 10:09:09;;;;;;;9.10;3.50;;;;;;;11.33;100.00;99275.65;105969;1251;62234;-61
2023/04/12 10:11:40;;;;;;;6.70;3.40;;;;;;;11.34;100.00;99274.15;106033;1251;60988;-59
2023/04/12 10:14:10;;;;;;;7.60;3.60;;;;;;;11.36;100.00;99269.06;105885;1253;74969;-58
2023/04/12 10:16:43;;;;;;;7.10;3.70;;;;;;;11.36;100.00;99268.81;105891;1257;68547;-57
2023/04/12 10:19:13;;;;;;;6.70;3.30;;;;;;;11.35;100.00;99265.05;106071;1255;74324;-59
2023/04/12 10:21:41;;;;;;;8.70;3.80;;;;;;;11.36;100.00;99269.71;105884;1251;62625;-58
2023/04/12 10:24:15;;;;;;;7.40;4.00;;;;;;;11.38;100.00;99264.52;105790;1251;61762;-59
2023/04/12 10:26:44;;;;;;;8.00;4.10;;;;;;;11.40;100.00;99270.21;105883;1256;75436;-58
2023/04/12 10:29:25;;;;;;;6.00;3.70;;;;;;;11.42;100.00;99268.45;106051;1257;68471;-59
2023/04/12 10:31:54;;;;;;;;;;;;;;;11.43;100.00;99261.44;106135;1251;74159;-59
2023/04/12 10:34:28;;;;;;;8.00;3.70;;;;;;;11.45;100.00;99261.87;106065;1251;61888;-60
2023/04/12 10:37:00;;;;;;;4.90;2.80;;;;;;;11.45;100.00;99249.42;105894;1253;60942;-61
2023/04/12 10:39:44;;;;;;;7.90;3.60;;;;;;;11.48;100.00;99240.31;105805;1251;74609;-59
2023/04/12 10:42:15;;;;;;;10.10;3.30;;;;;;;11.50;100.00;99233.89;105769;1254;68022;-57
2023/04/12 10:44:56;;;;;;;5.30;2.80;;;;;;;11.52;100.00;99232.06;106072;1256;74138;-60
2023/04/12 10:47:46;;;;;;;9.40;3.40;;;;;;;11.54;100.00;99226.58;106244;1254;63075;-58
2023/04/12 10:50:26;;;;;;;6.20;3.30;;;;;;;11.54;100.00;99222.68;105874;1250;60796;-57
2023/04/12 10:53:16;;;;;;;5.60;3.30;;;;;;;11.55;100.00;99210.87;105849;1253;75457;-59
2023/04/12 10:55:45;;;;;;;8.70;3.70;;;;;;;11.56;100.00;99211.67;106036;1253;67476;-58
2023/04/12 10:58:48;;;;;;;6.00;3.10;;;;;;;11.58;100.00;99203.80;105578;1257;74055;-56
2023/04/12 11:01:20;;;;;;;9.10;3.90;;;;;;;11.61;100.00;99195.70;106037;1254;63473;-62
2023/04/12 11:04:17;;;;;;;10.80;3.70;;;;;;;11.67;100.00;99178.90;106287;1253;60822;-56
2023/04/12 11:07:21;;;;;;;13.60;4.60;;;;;;;11.77;100.00;99165.95;105271;1258;73834;-60
2023/04/12 11:10:01;;;;;;;6.50;4.00;;;;;;;11.85;100.00;99161.64;105878;1251;68875;-58
2023/04/12 11:12:36;;;;;;;8.10;3.60;;;;;;;11.89;100.00;99153.52;105810;1251;73319;-59
2023/04/12 11:15:05;;;;;;;8.50;3.40;;;;;;;11.92;100.00;99148.65;105658;1251;63130;-57
2023/04/12 11:17:59;;;;;;;5.80;3.60;;;;;;;11.96;100.00;99142.84;105603;1257;61038;-57
2023/04/12 11:20:28;;;;;;;5.30;3.00;;;;;;;12.02;100.00;99137.95;106142;1250;75647;-60
2023/04/12 11:22:59;;;;;;;10.10;4.00;;;;;;;12.08;100.00;99135.95;106228;1251;68546;-60
2023/04/12 11:25:28;;;;;;;7.20;3.20;;;;;;;12.18;100.00;99130.55;105831;1251;74479;-58
2023/04/12 11:27:57;;;;;;;7.40;2.60;;;;;;;12.29;100.00;99128.48;106271;1251;63038;-60
2023/04/12 11:30:28;;;;;;;5.10;2.70;;;;;;;12.43;100.00;99129.62;105949;1257;61898;-58
2023/04/12 11:32:57;;;;;;;7.40;3.10;;;;;;;12.60;100.00;99132.02;106230;1257;75444;-58
2023/04/12 11:35:29;;;;;;;6.00;2.40;;;;;;;12.78;100.00;99133.38;105954;1255;68262;-57
2023/04/12 11:37:58;;;;;;;4.50;2.50;;;;;;;12.96;100.00;99121.77;105788;1251;73603;-59
2023/04/12 11:40:27;;;;;;;5.50;2.40;;;;;;;13.11;100.00;99118.88;105612;1251;62432;-57
2023/04/12 11:42:56;;;;;;;6.90;2.50;;;;;;;13.26;100.00;99113.23;106135;1251;61768;-58